sensor_id;sensor_type;location;lat;lon;timestamp;pressure;altitude;pressure_sealevel;temperature;humidity
75991;BME280;64673;52.276;10.560;2023-11-25T00:01:26;99619.63;;;-0.10;100.00
75991;BME280;64673;52.276;10.560;2023-11-25T00:03:51;99634.16;;;-0.13;100.00
75991;BME280;64673;52.276;10.560;2023-11-25T00:06:16;99637.81;;;-0.14;100.00
75991;BME280;64673;52.276;10.560;2023-11-25T00:08:45;99642.31;;;-0.14;100.00
75991;BME280;64673;52.276;10.560;2023-11-25T00:11:11;99655.34;;;-0.13;100.00
75991;BME280;64673;52.276;10.560;2023-11-25T00:13:36;99661.50;;;-0.19;100.00
75991;BME280;64673;52.276;10.560;2023-11-25T00:16:01;99663.13;;;-0.18;100.00
75991;BME280;64673;52.276;10.560;2023-11-25T00:18:27;99673.38;;;-0.21;100.00
75991;BME280;64673;52.276;10.560;2023-11-25T00:20:52;99683.19;;;-0.22;100.00
75991;BME280;64673;52.276;10.560;2023-11-25T00:23:17;99685.00;;;-0.22;100.00
75991;BME280;64673;52.276;10.560;2023-11-25T00:25:43;99691.78;;;-0.26;100.00
75991;BME280;64673;52.276;10.560;2023-11-25T00:28:08;99696.47;;;-0.28;100.00
75991;BME280;64673;52.276;10.560;2023-11-25T00:30:35;99695.06;;;-0.31;100.00
75991;BME280;64673;52.276;10.560;2023-11-25T00:33:00;99704.06;;;-0.32;100.00
75991;BME280;64673;52.276;10.560;2023-11-25T00:35:28;99714.22;;;-0.29;100.00
75991;BME280;64673;52.276;10.560;2023-11-25T00:37:54;99720.41;;;-0.35;100.00
75991;BME280;64673;52.276;10.560;2023-11-25T00:40:19;99714.34;;;-0.42;100.00
75991;BME280;64673;52.276;10.560;2023-11-25T00:42:45;99715.75;;;-0.40;100.00
75991;BME280;64673;52.276;10.560;2023-11-25T00:45:11;99719.38;;;-0.34;100.00
75991;BME280;64673;52.276;10.560;2023-11-25T00:47:37;99721.25;;;-0.41;100.00
75991;BME280;64673;52.276;10.560;2023-11-25T00:50:05;99706.63;;;-0.44;100.00
75991;BME280;64673;52.276;10.560;2023-11-25T00:52:31;99717.59;;;-0.40;100.00
75991;BME280;64673;52.276;10.560;2023-11-25T00:54:56;99725.31;;;-0.39;100.00
75991;BME280;64673;52.276;10.560;2023-11-25T00:57:22;99717.44;;;-0.45;100.00
75991;BME280;64673;52.276;10.560;2023-11-25T00:59:47;99735.53;;;-0.42;100.00
75991;BME280;64673;52.276;10.560;2023-11-25T01:02:12;99730.22;;;-0.42;100.00
75991;BME280;64673;52.276;10.560;2023-11-25T01:04:39;99738.41;;;-0.44;100.00
75991;BME280;64673;52.276;10.560;2023-11-25T01:07:06;99734.34;;;-0.46;100.00
75991;BME280;64673;52.276;10.560;2023-11-25T01:09:31;99728.63;;;-0.43;100.00
75991;BME280;64673;52.276;10.560;2023-11-25T01:11:56;99743.34;;;-0.47;100.00
75991;BME280;64673;52.276;10.560;2023-11-25T01:14:22;99744.56;;;-0.50;100.00
75991;BME280;64673;52.276;10.560;2023-11-25T01:16:51;99737.66;;;-0.51;100.00
75991;BME280;64673;52.276;10.560;2023-11-25T01:19:16;99742.94;;;-0.51;100.00
75991;BME280;64673;52.276;10.560;2023-11-25T01:21:41;99750.69;;;-0.49;100.00
75991;BME280;64673;52.276;10.560;2023-11-25T01:24:07;99747.00;;;-0.48;100.00
75991;BME280;64673;52.276;10.560;2023-11-25T01:26:32;99745.38;;;-0.49;100.00
75991;BME280;64673;52.276;10.560;2023-11-25T01:28:57;99737.44;;;-0.49;100.00
75991;BME280;64673;52.276;10.560;2023-11-25T01:31:23;99739.13;;;-0.55;100.00
75991;BME280;64673;52.276;10.560;2023-11-25T01:33:48;99750.97;;;-0.57;100.00
75991;BME280;64673;52.276;10.560;2023-11-25T01:36:13;99756.25;;;-0.57;100.00
75991;BME280;64673;52.276;10.560;2023-11-25T01:38:39;99763.16;;;-0.56;100.00
75991;BME280;64673;52.276;10.560;2023-11-25T01:41:05;99763.78;;;-0.54;100.00
75991;BME280;64673;52.276;10.560;2023-11-25T01:43:31;99758.31;;;-0.59;100.00
75991;BME280;64673;52.276;10.560;2023-11-25T01:45:57;99751.22;;;-0.65;100.00
75991;BME280;64673;52.276;10.560;2023-11-25T01:48:25;99758.31;;;-0.59;100.00
75991;BME280;64673;52.276;10.560;2023-11-25T01:50:51;99773.97;;;-0.58;100.00
75991;BME280;64673;52.276;10.560;2023-11-25T01:53:17;99778.03;;;-0.55;100.00
75991;BME280;64673;52.276;10.560;2023-11-25T01:55:45;99761.75;;;-0.59;100.00
75991;BME280;64673;52.276;10.560;2023-11-25T01:58:13;99756.03;;;-0.56;100.00
75991;BME280;64673;52.276;10.560;2023-11-25T02:00:42;99751.09;;;-0.52;100.00
75991;BME280;64673;52.276;10.560;2023-11-25T02:03:08;99754.41;;;-0.57;100.00
75991;BME280;64673;52.276;10.560;2023-11-25T02:05:36;99758.47;;;-0.54;99.67
75991;BME280;64673;52.276;10.560;2023-11-25T02:08:01;99751.69;;;-0.50;99.60
75991;BME280;64673;52.276;10.560;2023-11-25T02:10:27;99760.47;;;-0.50;99.10
75991;BME280;64673;52.276;10.560;2023-11-25T02:12:52;99753.94;;;-0.47;99.36
75991;BME280;64673;52.276;10.560;2023-11-25T02:15:18;99749.06;;;-0.50;98.99
75991;BME280;64673;52.276;10.560;2023-11-25T02:17:43;99754.34;;;-0.50;99.13
75991;BME280;64673;52.276;10.560;2023-11-25T02:20:12;99762.47;;;-0.45;98.84
75991;BME280;64673;52.276;10.560;2023-11-25T02:22:46;99764.94;;;-0.50;99.12
75991;BME280;64673;52.276;10.560;2023-11-25T02:25:12;99766.53;;;-0.43;98.32
75991;BME280;64673;52.276;10.560;2023-11-25T02:27:40;99762.91;;;-0.48;98.35
75991;BME280;64673;52.276;10.560;2023-11-25T02:30:05;99758.34;;;-0.41;98.11
75991;BME280;64673;52.276;10.560;2023-11-25T02:32:31;99761.28;;;-0.49;99.17
75991;BME280;64673;52.276;10.560;2023-11-25T02:34:58;99767.75;;;-0.45;98.73
75991;BME280;64673;52.276;10.560;2023-11-25T02:37:25;99766.13;;;-0.46;98.53
75991;BME280;64673;52.276;10.560;2023-11-25T02:39:52;99765.03;;;-0.39;98.14
75991;BME280;64673;52.276;10.560;2023-11-25T02:42:17;99766.47;;;-0.36;98.35
75991;BME280;64673;52.276;10.560;2023-11-25T02:44:43;99757.53;;;-0.42;98.20
75991;BME280;64673;52.276;10.560;2023-11-25T02:47:08;99770.56;;;-0.40;97.97
75991;BME280;64673;52.276;10.560;2023-11-25T02:49:33;99772.56;;;-0.35;98.36
75991;BME280;64673;52.276;10.560;2023-11-25T02:51:59;99773.38;;;-0.35;97.40
75991;BME280;64673;52.276;10.560;2023-11-25T02:54:24;99784.41;;;-0.38;97.65
75991;BME280;64673;52.276;10.560;2023-11-25T02:56:50;99755.44;;;-0.58;97.69
75991;BME280;64673;52.276;10.560;2023-11-25T02:59:16;99785.59;;;-0.34;97.88
75991;BME280;64673;52.276;10.560;2023-11-25T03:01:45;99776.78;;;-0.28;97.58
75991;BME280;64673;52.276;10.560;2023-11-25T03:04:17;99781.63;;;-0.25;97.04
75991;BME280;64673;52.276;10.560;2023-11-25T03:06:46;99781.47;;;-0.30;97.02
75991;BME280;64673;52.276;10.560;2023-11-25T03:09:13;99790.03;;;-0.28;97.45
75991;BME280;64673;52.276;10.560;2023-11-25T03:11:40;99783.09;;;-0.29;97.22
75991;BME280;64673;52.276;10.560;2023-11-25T03:14:05;99782.66;;;-0.26;97.21
75991;BME280;64673;52.276;10.560;2023-11-25T03:16:32;99787.78;;;-0.31;98.38
75991;BME280;64673;52.276;10.560;2023-11-25T03:18:57;99788.03;;;-0.32;98.23
75991;BME280;64673;52.276;10.560;2023-11-25T03:21:23;99783.09;;;-0.29;98.02
75991;BME280;64673;52.276;10.560;2023-11-25T03:23:50;99783.47;;;-0.25;97.95
75991;BME280;64673;52.276;10.560;2023-11-25T03:26:15;99796.50;;;-0.24;98.76
75991;BME280;64673;52.276;10.560;2023-11-25T03:28:41;99790.75;;;-0.21;98.17
75991;BME280;64673;52.276;10.560;2023-11-25T03:31:06;99796.50;;;-0.24;98.20
75991;BME280;64673;52.276;10.560;2023-11-25T03:33:34;99788.72;;;-0.19;98.36
75991;BME280;64673;52.276;10.560;2023-11-25T03:36:00;99797.25;;;-0.17;98.44
75991;BME280;64673;52.276;10.560;2023-11-25T03:38:26;99775.47;;;-0.19;98.07
75991;BME280;64673;52.276;10.560;2023-11-25T03:40:52;99779.31;;;-0.15;98.90
75991;BME280;64673;52.276;10.560;2023-11-25T03:43:19;99790.28;;;-0.11;99.19
75991;BME280;64673;52.276;10.560;2023-11-25T03:45:44;99796.72;;;-0.01;98.44
75991;BME280;64673;52.276;10.560;2023-11-25T03:48:09;99787.78;;;-0.06;98.21
75991;BME280;64673;52.276;10.560;2023-11-25T03:50:35;99786.09;;;-0.01;98.03
75991;BME280;64673;52.276;10.560;2023-11-25T03:53:01;99790.94;;;0.03;97.54
75991;BME280;64673;52.276;10.560;2023-11-25T03:55:27;99791.91;;;0.08;96.78
75991;BME280;64673;52.276;10.560;2023-11-25T03:57:52;99792.53;;;0.10;97.47
75991;BME280;64673;52.276;10.560;2023-11-25T04:00:17;99788.81;;;0.11;97.51
75991;BME280;64673;52.276;10.560;2023-11-25T04:02:47;99776.44;;;0.05;96.70
75991;BME280;64673;52.276;10.560;2023-11-25T04:05:12;99778.16;;;0.18;96.59
75991;BME280;64673;52.276;10.560;2023-11-25T04:07:39;99770.41;;;0.16;96.68
75991;BME280;64673;52.276;10.560;2023-11-25T04:10:08;99771.00;;;0.18;96.67
75991;BME280;64673;52.276;10.560;2023-11-25T04:12:47;99763.41;;;0.22;96.41
75991;BME280;64673;52.276;10.560;2023-11-25T04:15:15;99774.31;;;0.32;96.46
75991;BME280;64673;52.276;10.560;2023-11-25T04:17:41;99747.88;;;0.25;96.14
75991;BME280;64673;52.276;10.560;2023-11-25T04:20:08;99763.41;;;0.40;96.34
75991;BME280;64673;52.276;10.560;2023-11-25T04:22:46;99752.94;;;0.45;95.44
75991;BME280;64673;52.276;10.560;2023-11-25T04:25:14;99764.28;;;0.52;95.35
75991;BME280;64673;52.276;10.560;2023-11-25T04:27:44;99753.44;;;0.54;95.30
75991;BME280;64673;52.276;10.560;2023-11-25T04:30:11;99761.38;;;0.54;95.07
75991;BME280;64673;52.276;10.560;2023-11-25T04:32:37;99754.25;;;0.54;95.08
75991;BME280;64673;52.276;10.560;2023-11-25T04:35:03;99751.91;;;0.46;95.22
75991;BME280;64673;52.276;10.560;2023-11-25T04:37:35;99763.75;;;0.62;94.50
75991;BME280;64673;52.276;10.560;2023-11-25T04:40:01;99747.91;;;0.55;94.46
75991;BME280;64673;52.276;10.560;2023-11-25T04:42:30;99756.00;;;0.60;94.49
75991;BME280;64673;52.276;10.560;2023-11-25T04:44:55;99758.78;;;0.65;94.28
75991;BME280;64673;52.276;10.560;2023-11-25T04:47:21;99750.72;;;0.60;95.09
75991;BME280;64673;52.276;10.560;2023-11-25T04:49:46;99750.38;;;0.68;95.08
75991;BME280;64673;52.276;10.560;2023-11-25T04:52:12;99732.34;;;0.59;95.43
75991;BME280;64673;52.276;10.560;2023-11-25T04:54:38;99743.59;;;0.72;94.55
75991;BME280;64673;52.276;10.560;2023-11-25T04:57:04;99742.00;;;0.71;94.58
75991;BME280;64673;52.276;10.560;2023-11-25T04:59:30;99746.81;;;0.74;94.68
75991;BME280;64673;52.276;10.560;2023-11-25T05:01:55;99738.19;;;0.79;94.01
75991;BME280;64673;52.276;10.560;2023-11-25T05:04:21;99742.59;;;0.85;94.51
75991;BME280;64673;52.276;10.560;2023-11-25T05:06:46;99739.84;;;0.92;93.99
75991;BME280;64673;52.276;10.560;2023-11-25T05:09:12;99735.69;;;0.96;93.59
75991;BME280;64673;52.276;10.560;2023-11-25T05:11:39;99730.16;;;0.97;94.49
75991;BME280;64673;52.276;10.560;2023-11-25T05:14:05;99719.66;;;0.91;94.75
75991;BME280;64673;52.276;10.560;2023-11-25T05:16:30;99724.53;;;0.94;95.65
75991;BME280;64673;52.276;10.560;2023-11-25T05:18:55;99714.47;;;0.96;95.16
75991;BME280;64673;52.276;10.560;2023-11-25T05:21:21;99709.72;;;0.98;94.46
75991;BME280;64673;52.276;10.560;2023-11-25T05:23:46;99709.72;;;0.98;95.27
75991;BME280;64673;52.276;10.560;2023-11-25T05:26:13;99705.47;;;0.97;95.22
75991;BME280;64673;52.276;10.560;2023-11-25T05:28:39;99711.03;;;0.95;95.48
75991;BME280;64673;52.276;10.560;2023-11-25T05:31:04;99708.44;;;0.89;95.75
75991;BME280;64673;52.276;10.560;2023-11-25T05:33:30;99712.28;;;0.93;95.50
75991;BME280;64673;52.276;10.560;2023-11-25T05:35:55;99700.72;;;0.87;96.20
75991;BME280;64673;52.276;10.560;2023-11-25T05:38:21;99701.19;;;0.96;95.48
75991;BME280;64673;52.276;10.560;2023-11-25T05:40:46;99701.44;;;0.94;96.03
75991;BME280;64673;52.276;10.560;2023-11-25T05:43:12;99691.50;;;0.90;95.84
75991;BME280;64673;52.276;10.560;2023-11-25T05:45:39;99698.41;;;0.91;95.75
75991;BME280;64673;52.276;10.560;2023-11-25T05:48:06;99687.22;;;0.89;96.47
75991;BME280;64673;52.276;10.560;2023-11-25T05:50:31;99691.94;;;0.87;97.08
75991;BME280;64673;52.276;10.560;2023-11-25T05:52:59;99699.00;;;0.93;97.21
75991;BME280;64673;52.276;10.560;2023-11-25T05:55:24;99699.00;;;0.93;97.05
75991;BME280;64673;52.276;10.560;2023-11-25T05:57:51;99702.25;;;0.95;97.72
75991;BME280;64673;52.276;10.560;2023-11-25T06:00:18;99709.47;;;0.88;97.91
75991;BME280;64673;52.276;10.560;2023-11-25T06:02:43;99704.44;;;0.98;98.33
75991;BME280;64673;52.276;10.560;2023-11-25T06:05:09;99699.47;;;1.01;98.22
75991;BME280;64673;52.276;10.560;2023-11-25T06:07:34;99708.25;;;1.02;98.45
75991;BME280;64673;52.276;10.560;2023-11-25T06:10:00;99699.94;;;0.98;98.68
75991;BME280;64673;52.276;10.560;2023-11-25T06:12:25;99694.97;;;1.02;98.94
75991;BME280;64673;52.276;10.560;2023-11-25T06:14:53;99704.09;;;1.06;99.11
75991;BME280;64673;52.276;10.560;2023-11-25T06:17:21;99695.69;;;1.09;98.84
75991;BME280;64673;52.276;10.560;2023-11-25T06:19:48;99692.44;;;1.07;99.59
75991;BME280;64673;52.276;10.560;2023-11-25T06:22:14;99694.63;;;1.10;99.60
75991;BME280;64673;52.276;10.560;2023-11-25T06:24:39;99692.69;;;1.17;99.56
75991;BME280;64673;52.276;10.560;2023-11-25T06:27:05;99685.28;;;1.19;99.60
75991;BME280;64673;52.276;10.560;2023-11-25T06:29:31;99693.41;;;1.24;99.91
75991;BME280;64673;52.276;10.560;2023-11-25T06:31:56;99694.06;;;1.20;99.69
75991;BME280;64673;52.276;10.560;2023-11-25T06:34:21;99695.03;;;1.25;99.64
75991;BME280;64673;52.276;10.560;2023-11-25T06:36:47;99687.59;;;1.27;99.61
75991;BME280;64673;52.276;10.560;2023-11-25T06:39:12;99683.00;;;1.23;99.97
75991;BME280;64673;52.276;10.560;2023-11-25T06:41:41;99687.16;;;1.30;99.20
75991;BME280;64673;52.276;10.560;2023-11-25T06:44:09;99690.16;;;1.34;99.98
75991;BME280;64673;52.276;10.560;2023-11-25T06:46:35;99675.94;;;1.28;100.00
75991;BME280;64673;52.276;10.560;2023-11-25T06:49:00;99679.31;;;1.35;99.70
75991;BME280;64673;52.276;10.560;2023-11-25T06:51:26;99691.09;;;1.39;99.31
75991;BME280;64673;52.276;10.560;2023-11-25T06:53:52;99689.81;;;1.42;100.00
75991;BME280;64673;52.276;10.560;2023-11-25T06:56:17;99685.91;;;1.44;99.82
75991;BME280;64673;52.276;10.560;2023-11-25T06:58:43;99684.97;;;1.51;99.87
75991;BME280;64673;52.276;10.560;2023-11-25T07:01:08;99692.47;;;1.54;100.00
75991;BME280;64673;52.276;10.560;2023-11-25T07:03:33;99690.28;;;1.51;99.61
75991;BME280;64673;52.276;10.560;2023-11-25T07:05:59;99679.53;;;1.45;99.94
75991;BME280;64673;52.276;10.560;2023-11-25T07:08:24;99678.84;;;1.38;100.00
75991;BME280;64673;52.276;10.560;2023-11-25T07:10:50;99684.28;;;1.43;100.00
75991;BME280;64673;52.276;10.560;2023-11-25T07:13:24;99682.06;;;1.40;100.00
75991;BME280;64673;52.276;10.560;2023-11-25T07:15:52;99683.69;;;1.41;100.00
75991;BME280;64673;52.276;10.560;2023-11-25T07:18:18;99676.75;;;1.40;100.00
75991;BME280;64673;52.276;10.560;2023-11-25T07:20:44;99680.34;;;1.46;100.00
75991;BME280;64673;52.276;10.560;2023-11-25T07:23:10;99683.34;;;1.38;100.00
75991;BME280;64673;52.276;10.560;2023-11-25T07:25:35;99676.44;;;1.37;100.00
75991;BME280;64673;52.276;10.560;2023-11-25T07:28:04;99662.78;;;1.45;100.00
75991;BME280;64673;52.276;10.560;2023-11-25T07:30:29;99673.66;;;1.43;100.00
75991;BME280;64673;52.276;10.560;2023-11-25T07:32:55;99667.31;;;1.44;100.00
75991;BME280;64673;52.276;10.560;2023-11-25T07:35:20;99669.38;;;1.42;100.00
75991;BME280;64673;52.276;10.560;2023-11-25T07:37:46;99668.56;;;1.42;100.00
75991;BME280;64673;52.276;10.560;2023-11-25T07:40:11;99659.09;;;1.46;100.00
75991;BME280;64673;52.276;10.560;2023-11-25T07:42:44;99667.41;;;1.50;100.00
75991;BME280;64673;52.276;10.560;2023-11-25T07:45:11;99658.75;;;1.31;100.00
75991;BME280;64673;52.276;10.560;2023-11-25T07:47:37;99661.75;;;1.34;100.00
75991;BME280;64673;52.276;10.560;2023-11-25T07:50:02;99664.28;;;1.29;100.00
75991;BME280;64673;52.276;10.560;2023-11-25T07:52:28;99664.06;;;1.19;100.00
75991;BME280;64673;52.276;10.560;2023-11-25T07:54:53;99658.72;;;1.07;100.00
75991;BME280;64673;52.276;10.560;2023-11-25T07:57:18;99648.81;;;1.03;100.00
75991;BME280;64673;52.276;10.560;2023-11-25T07:59:44;99647.19;;;1.02;100.00
75991;BME280;64673;52.276;10.560;2023-11-25T08:02:10;99643.38;;;0.98;100.00
75991;BME280;64673;52.276;10.560;2023-11-25T08:04:35;99643.94;;;1.00;100.00
75991;BME280;64673;52.276;10.560;2023-11-25T08:07:00;99620.97;;;0.82;100.00
75991;BME280;64673;52.276;10.560;2023-11-25T08:09:26;99623.16;;;0.97;100.00
75991;BME280;64673;52.276;10.560;2023-11-25T08:11:51;99627.09;;;0.94;100.00
75991;BME280;64673;52.276;10.560;2023-11-25T08:14:18;99627.09;;;0.83;100.00
75991;BME280;64673;52.276;10.560;2023-11-25T08:16:43;99623.41;;;0.84;100.00
75991;BME280;64673;52.276;10.560;2023-11-25T08:19:09;99623.84;;;0.81;100.00
75991;BME280;64673;52.276;10.560;2023-11-25T08:21:35;99627.53;;;0.80;100.00
75991;BME280;64673;52.276;10.560;2023-11-25T08:24:00;99623.84;;;0.81;100.00
75991;BME280;64673;52.276;10.560;2023-11-25T08:26:25;99605.84;;;0.83;100.00
75991;BME280;64673;52.276;10.560;2023-11-25T08:28:52;99611.16;;;0.83;100.00
75991;BME280;64673;52.276;10.560;2023-11-25T08:31:18;99610.44;;;0.76;100.00
75991;BME280;64673;52.276;10.560;2023-11-25T08:33:44;99610.69;;;0.74;100.00
75991;BME280;64673;52.276;10.560;2023-11-25T08:36:10;99613.69;;;0.78;100.00
75991;BME280;64673;52.276;10.560;2023-11-25T08:38:39;99609.53;;;0.82;100.00
75991;BME280;64673;52.276;10.560;2023-11-25T08:41:04;99613.22;;;0.81;100.00
75991;BME280;64673;52.276;10.560;2023-11-25T08:43:34;99616.81;;;0.86;100.00
75991;BME280;64673;52.276;10.560;2023-11-25T08:46:00;99614.88;;;0.93;100.00
75991;BME280;64673;52.276;10.560;2023-11-25T08:48:25;99612.31;;;0.87;100.00
75991;BME280;64673;52.276;10.560;2023-11-25T08:50:50;99613.13;;;0.87;100.00
75991;BME280;64673;52.276;10.560;2023-11-25T08:53:16;99617.84;;;0.97;100.00
75991;BME280;64673;52.276;10.560;2023-11-25T08:55:41;99613.56;;;0.96;100.00
75991;BME280;64673;52.276;10.560;2023-11-25T08:58:06;99619.03;;;1.01;100.00
75991;BME280;64673;52.276;10.560;2023-11-25T09:00:32;99621.00;;;1.05;100.00
75991;BME280;64673;52.276;10.560;2023-11-25T09:02:58;99607.69;;;1.17;100.00
75991;BME280;64673;52.276;10.560;2023-11-25T09:05:24;99625.75;;;1.27;100.00
75991;BME280;64673;52.276;10.560;2023-11-25T09:07:56;99608.41;;;1.24;100.00
75991;BME280;64673;52.276;10.560;2023-11-25T09:10:21;99615.56;;;1.35;100.00
75991;BME280;64673;52.276;10.560;2023-11-25T09:12:49;99610.94;;;1.42;100.00
75991;BME280;64673;52.276;10.560;2023-11-25T09:15:17;99614.50;;;1.48;100.00
75991;BME280;64673;52.276;10.560;2023-11-25T09:17:42;99610.78;;;1.61;100.00
75991;BME280;64673;52.276;10.560;2023-11-25T09:20:12;99617.13;;;1.60;100.00
75991;BME280;64673;52.276;10.560;2023-11-25T09:22:38;99629.28;;;1.67;100.00
75991;BME280;64673;52.276;10.560;2023-11-25T09:25:05;99627.50;;;1.73;100.00
75991;BME280;64673;52.276;10.560;2023-11-25T09:27:30;99636.72;;;1.82;100.00
75991;BME280;64673;52.276;10.560;2023-11-25T09:29:55;99626.91;;;1.82;100.00
75991;BME280;64673;52.276;10.560;2023-11-25T09:32:21;99633.81;;;1.95;100.00
75991;BME280;64673;52.276;10.560;2023-11-25T09:34:47;99638.47;;;1.88;100.00
75991;BME280;64673;52.276;10.560;2023-11-25T09:37:14;99625.84;;;1.95;100.00
75991;BME280;64673;52.276;10.560;2023-11-25T09:39:40;99633.44;;;2.03;100.00
75991;BME280;64673;52.276;10.560;2023-11-25T09:42:05;99635.53;;;2.01;100.00
75991;BME280;64673;52.276;10.560;2023-11-25T09:44:31;99631.69;;;2.09;100.00
75991;BME280;64673;52.276;10.560;2023-11-25T09:46:56;99635.75;;;2.11;100.00
75991;BME280;64673;52.276;10.560;2023-11-25T09:49:22;99620.81;;;2.10;100.00
75991;BME280;64673;52.276;10.560;2023-11-25T09:51:48;99634.78;;;2.17;100.00
75991;BME280;64673;52.276;10.560;2023-11-25T09:54:19;99628.88;;;2.15;100.00
75991;BME280;64673;52.276;10.560;2023-11-25T09:56:48;99630.03;;;2.19;100.00
75991;BME280;64673;52.276;10.560;2023-11-25T09:59:14;99626.34;;;2.20;100.00
75991;BME280;64673;52.276;10.560;2023-11-25T10:01:41;99626.41;;;2.26;100.00
75991;BME280;64673;52.276;10.560;2023-11-25T10:04:07;99617.56;;;2.37;100.00
75991;BME280;64673;52.276;10.560;2023-11-25T10:06:33;99619.78;;;2.40;100.00
75991;BME280;64673;52.276;10.560;2023-11-25T10:08:58;99606.47;;;2.40;100.00
75991;BME280;64673;52.276;10.560;2023-11-25T10:11:24;99610.69;;;2.52;100.00
75991;BME280;64673;52.276;10.560;2023-11-25T10:13:50;99612.44;;;2.47;100.00
75991;BME280;64673;52.276;10.560;2023-11-25T10:16:25;99629.53;;;2.51;100.00
75991;BME280;64673;52.276;10.560;2023-11-25T10:18:51;99615.56;;;2.44;100.00
75991;BME280;64673;52.276;10.560;2023-11-25T10:21:17;99617.06;;;2.51;100.00
75991;BME280;64673;52.276;10.560;2023-11-25T10:23:43;99615.78;;;2.54;100.00
75991;BME280;64673;52.276;10.560;2023-11-25T10:26:09;99621.88;;;2.54;100.00
75991;BME280;64673;52.276;10.560;2023-11-25T10:28:34;99620.19;;;2.65;100.00
75991;BME280;64673;52.276;10.560;2023-11-25T10:31:03;99621.50;;;2.63;100.00
75991;BME280;64673;52.276;10.560;2023-11-25T10:33:35;99621.50;;;2.63;100.00
75991;BME280;64673;52.276;10.560;2023-11-25T10:36:03;99626.31;;;2.66;100.00
75991;BME280;64673;52.276;10.560;2023-11-25T10:38:28;99627.13;;;2.66;100.00
75991;BME280;64673;52.276;10.560;2023-11-25T10:41:04;99624.56;;;2.71;100.00
75991;BME280;64673;52.276;10.560;2023-11-25T10:43:31;99630.69;;;2.72;100.00
75991;BME280;64673;52.276;10.560;2023-11-25T10:48:27;99619.75;;;2.85;100.00
75991;BME280;64673;52.276;10.560;2023-11-25T10:50:53;99612.63;;;2.74;100.00
75991;BME280;64673;52.276;10.560;2023-11-25T10:53:19;99622.78;;;2.77;100.00
75991;BME280;64673;52.276;10.560;2023-11-25T10:55:45;99615.69;;;2.82;100.00
75991;BME280;64673;52.276;10.560;2023-11-25T10:58:14;99612.31;;;2.87;100.00
75991;BME280;64673;52.276;10.560;2023-11-25T11:00:40;99616.75;;;2.81;100.00
75991;BME280;64673;52.276;10.560;2023-11-25T11:03:09;99613.38;;;2.86;100.00
75991;BME280;64673;52.276;10.560;2023-11-25T11:08:15;99616.09;;;2.74;100.00
75991;BME280;64673;52.276;10.560;2023-11-25T11:10:51;99601.50;;;2.77;100.00
75991;BME280;64673;52.276;10.560;2023-11-25T11:13:23;99592.78;;;2.81;100.00
75991;BME280;64673;52.276;10.560;2023-11-25T11:15:52;99592.31;;;2.84;100.00
75991;BME280;64673;52.276;10.560;2023-11-25T11:18:24;99592.13;;;2.91;100.00
75991;BME280;64673;52.276;10.560;2023-11-25T11:20:51;99610.06;;;2.96;100.00
75991;BME280;64673;52.276;10.560;2023-11-25T11:23:20;99591.81;;;2.87;100.00
75991;BME280;64673;52.276;10.560;2023-11-25T11:28:41;99603.44;;;2.81;100.00
75991;BME280;64673;52.276;10.560;2023-11-25T11:33:55;99599.63;;;2.77;100.00
75991;BME280;64673;52.276;10.560;2023-11-25T11:36:21;99603.84;;;2.73;100.00
75991;BME280;64673;52.276;10.560;2023-11-25T11:38:54;99600.63;;;2.71;100.00
75991;BME280;64673;52.276;10.560;2023-11-25T11:44:07;99612.63;;;2.74;100.00
75991;BME280;64673;52.276;10.560;2023-11-25T11:46:36;99612.72;;;2.79;100.00
75991;BME280;64673;52.276;10.560;2023-11-25T11:49:06;99620.78;;;2.84;100.00
75991;BME280;64673;52.276;10.560;2023-11-25T11:51:33;99615.59;;;2.77;100.00
75991;BME280;64673;52.276;10.560;2023-11-25T11:54:34;99614.72;;;2.88;100.00
75991;BME280;64673;52.276;10.560;2023-11-25T12:00:00;99625.38;;;2.88;100.00
75991;BME280;64673;52.276;10.560;2023-11-25T12:02:30;99623.38;;;2.96;100.00
75991;BME280;64673;52.276;10.560;2023-11-25T12:04:59;99632.00;;;3.03;100.00
75991;BME280;64673;52.276;10.560;2023-11-25T12:07:26;99628.78;;;3.01;100.00
75991;BME280;64673;52.276;10.560;2023-11-25T12:09:53;99622.34;;;2.97;100.00
75991;BME280;64673;52.276;10.560;2023-11-25T12:12:18;99623.44;;;3.01;100.00
75991;BME280;64673;52.276;10.560;2023-11-25T12:14:44;99628.63;;;3.07;100.00
75991;BME280;64673;52.276;10.560;2023-11-25T12:17:11;99635.41;;;3.15;100.00
75991;BME280;64673;52.276;10.560;2023-11-25T12:19:36;99624.75;;;3.15;100.00
75991;BME280;64673;52.276;10.560;2023-11-25T12:22:02;99627.47;;;3.20;100.00
75991;BME280;64673;52.276;10.560;2023-11-25T12:24:32;99627.16;;;3.16;100.00
75991;BME280;64673;52.276;10.560;2023-11-25T12:26:58;99632.78;;;3.20;100.00
75991;BME280;64673;52.276;10.560;2023-11-25T12:29:24;99626.59;;;3.14;100.00
75991;BME280;64673;52.276;10.560;2023-11-25T12:31:50;99638.50;;;3.28;100.00
75991;BME280;64673;52.276;10.560;2023-11-25T12:34:15;99652.78;;;3.39;100.00
75991;BME280;64673;52.276;10.560;2023-11-25T12:36:40;99632.38;;;3.45;100.00
75991;BME280;64673;52.276;10.560;2023-11-25T12:39:07;99632.31;;;3.61;100.00
75991;BME280;64673;52.276;10.560;2023-11-25T12:41:38;99642.44;;;3.59;100.00
75991;BME280;64673;52.276;10.560;2023-11-25T12:44:05;99629.34;;;3.58;100.00
75991;BME280;64673;52.276;10.560;2023-11-25T12:46:31;99623.81;;;3.64;100.00
75991;BME280;64673;52.276;10.560;2023-11-25T12:48:57;99638.84;;;3.71;100.00
75991;BME280;64673;52.276;10.560;2023-11-25T12:51:24;99618.56;;;3.70;100.00
75991;BME280;64673;52.276;10.560;2023-11-25T12:53:53;99636.59;;;3.62;100.00
75991;BME280;64673;52.276;10.560;2023-11-25T12:56:20;99632.88;;;3.63;100.00
75991;BME280;64673;52.276;10.560;2023-11-25T12:58:47;99638.28;;;3.68;100.00
75991;BME280;64673;52.276;10.560;2023-11-25T13:01:12;99642.56;;;3.70;100.00
75991;BME280;64673;52.276;10.560;2023-11-25T13:03:38;99647.91;;;3.70;100.00